Terminal Aerodrome Forecast
Issued by NWS

Home | Current Version | Previous Version | Text Only | Print | Product List | Glossary On
Versions: 1 2 3 4 5 6 7 8 9 10 11 12 13 14 15 16 17 18
000
FTUS41 KALY 040817 AAA
TAFPSF
TAF AMD
KPSF 040817Z 0408/0506 00000KT P6SM VCSH SCT050 BKN100
      TEMPO 0408/0410 4SM -TSRA BR SCT025CB BKN050
     FM041200 23005KT P6SM SCT050 SCT090
     FM041600 25008G16KT P6SM VCTS SCT025CB BKN050
     FM042100 29010KT P6SM SCT050 BKN100
     FM050000 28006KT P6SM SCT050 SCT100=

USA.gov is the U.S. government's official web portal to all federal, state and local government web resources and services.